createdAt,value
2022-09-05T00:00:36.913Z,91.75
2022-09-05T00:01:41.225Z,91.68
2022-09-05T00:02:48.837Z,91.79
2022-09-05T00:03:50.157Z,91.69
2022-09-05T00:04:54.282Z,91.46
2022-09-05T00:06:02.585Z,91.32
2022-09-05T00:07:02.982Z,91.39
2022-09-05T00:08:07.332Z,91.34
2022-09-05T00:09:11.656Z,91.29
2022-09-05T00:10:15.962Z,91.24
2022-09-05T00:11:40.551Z,91.16
2022-09-05T00:12:24.598Z,91.13
2022-09-05T00:13:28.996Z,90.93
2022-09-05T00:14:34.340Z,91.00
2022-09-05T00:15:37.733Z,91.03
2022-09-05T00:16:42.042Z,91.20
2022-09-05T00:19:30.531Z,91.30
2022-09-05T00:24:18.755Z,91.20
2022-09-05T00:24:19.855Z,91.13
2022-09-05T00:24:29.712Z,90.77
2022-09-05T00:24:31.148Z,91.09
2022-09-05T00:24:31.787Z,90.93
2022-09-05T00:24:37.609Z,91.09
2022-09-05T00:25:32.999Z,90.76
2022-09-05T00:26:21.317Z,90.74
2022-09-05T00:27:25.593Z,90.67
2022-09-05T00:28:30.030Z,90.64
2022-09-05T00:30:29.302Z,90.71
2022-09-05T00:31:07.421Z,90.78
2022-09-05T00:31:54.634Z,90.69
2022-09-05T00:32:47.358Z,90.67
2022-09-05T00:33:51.713Z,90.77
2022-09-05T00:34:55.998Z,90.84
2022-09-05T00:36:01.159Z,90.77
2022-09-05T00:37:04.779Z,90.74
2022-09-05T00:38:09.155Z,90.91
2022-09-05T00:39:13.462Z,90.74
2022-09-05T00:40:19.165Z,90.60
2022-09-05T00:41:22.103Z,90.53
2022-09-05T00:42:26.527Z,90.58
2022-09-05T00:43:30.886Z,90.64
2022-09-05T00:44:35.266Z,90.62
2022-09-05T00:45:39.647Z,90.70
2022-09-05T00:46:44.029Z,90.59
2022-09-05T00:47:48.552Z,90.48
2022-09-05T00:48:52.821Z,90.42
2022-09-05T00:49:57.136Z,90.41
2022-09-05T00:51:01.520Z,90.35
2022-09-05T00:52:05.896Z,90.32
2022-09-05T00:53:10.287Z,90.32
2022-09-05T00:54:15.786Z,90.27
2022-09-05T00:55:18.935Z,90.10
2022-09-05T00:56:23.464Z,90.07
2022-09-05T00:57:27.757Z,90.01
2022-09-05T00:58:34.025Z,89.96
2022-09-05T00:59:37.072Z,90.01
2022-09-05T01:00:41.401Z,89.91
2022-09-05T01:01:45.860Z,89.84
2022-09-05T01:02:52.117Z,89.87
2022-09-05T01:03:54.388Z,89.75
2022-09-05T01:04:58.704Z,89.85
2022-09-05T01:06:03.140Z,89.82
2022-09-05T01:07:07.429Z,90.14
2022-09-05T01:08:11.843Z,89.93
2022-09-05T01:09:16.118Z,90.22
2022-09-05T01:10:23.491Z,90.27
2022-09-05T01:11:24.858Z,90.19
2022-09-05T01:12:29.200Z,90.02
2022-09-05T01:13:33.607Z,89.96
2022-09-05T01:14:37.974Z,90.19
2022-09-05T01:15:42.314Z,90.34
2022-09-05T01:16:46.649Z,90.46
2022-09-05T01:17:51.028Z,90.27
2022-09-05T01:18:55.295Z,90.26
2022-09-05T01:20:04.770Z,90.43
2022-09-05T01:21:04.061Z,90.42
2022-09-05T01:22:08.439Z,90.75
2022-09-05T01:23:12.900Z,90.71
2022-09-05T01:24:17.200Z,90.68
2022-09-05T01:25:21.472Z,90.46
2022-09-05T01:26:25.884Z,90.52
2022-09-05T01:27:53.076Z,90.48
2022-09-05T01:29:16.853Z,90.53
2022-09-05T01:29:39.026Z,90.51
2022-09-05T01:30:43.412Z,90.54
2022-09-05T01:31:47.731Z,90.56
2022-09-05T01:32:52.003Z,90.40
2022-09-05T01:33:56.415Z,90.43
2022-09-05T01:35:00.727Z,90.41
2022-09-05T01:36:05.061Z,90.34
2022-09-05T01:37:33.785Z,90.47
2022-09-05T01:38:13.797Z,90.44
2022-09-05T01:40:11.075Z,90.46
2022-09-05T01:40:22.539Z,90.42
2022-09-05T01:41:26.948Z,90.36
2022-09-05T01:42:31.690Z,90.22
2022-09-05T01:43:35.562Z,90.10
2022-09-05T01:44:39.905Z,90.06
2022-09-05T01:45:44.330Z,90.03
2022-09-05T01:46:48.700Z,90.04
2022-09-05T01:47:52.996Z,89.98
2022-09-05T01:48:57.396Z,89.85
2022-09-05T01:50:01.767Z,89.84
2022-09-05T01:51:06.741Z,89.93
2022-09-05T01:52:10.481Z,89.83
2022-09-05T01:53:14.774Z,89.71
2022-09-05T01:54:24.279Z,89.63
2022-09-05T01:55:23.498Z,89.54
2022-09-05T01:56:27.912Z,89.48
2022-09-05T01:57:32.189Z,89.35
2022-09-05T01:58:36.517Z,89.33
2022-09-05T01:59:40.952Z,89.24
2022-09-05T02:00:45.241Z,89.20
2022-09-05T02:01:49.712Z,89.23
2022-09-05T02:02:53.926Z,89.14
2022-09-05T02:03:58.219Z,89.12
2022-09-05T02:05:02.642Z,89.19
2022-09-05T02:06:06.995Z,89.19
2022-09-05T02:07:20.120Z,89.16
2022-09-05T02:08:15.622Z,89.02
2022-09-05T02:09:20.053Z,88.88
2022-09-05T02:10:24.401Z,88.89
2022-09-05T02:11:35.992Z,88.69
2022-09-05T02:12:33.132Z,88.70
2022-09-05T02:13:37.476Z,88.68
2022-09-05T02:14:41.743Z,88.65
2022-09-05T02:15:59.299Z,88.63
2022-09-05T02:16:50.509Z,88.58
2022-09-05T02:17:54.846Z,88.52
2022-09-05T02:19:01.146Z,88.52
2022-09-05T02:20:03.615Z,88.47
2022-09-05T02:21:07.999Z,88.36
2022-09-05T02:22:12.366Z,88.27
2022-09-05T02:23:40.221Z,88.18
2022-09-05T02:24:21.105Z,88.11
2022-09-05T02:25:40.281Z,88.06
2022-09-05T02:26:29.792Z,88.00
2022-09-05T02:28:03.615Z,87.93
2022-09-05T02:28:38.483Z,87.87
2022-09-05T02:29:42.826Z,87.80
2022-09-05T02:30:58.076Z,87.75
2022-09-05T02:31:51.624Z,87.68
2022-09-05T02:32:56.016Z,87.63
2022-09-05T02:34:02.020Z,87.55
2022-09-05T02:35:04.659Z,87.53
2022-09-05T02:36:09.039Z,87.50
2022-09-05T02:37:13.327Z,87.49
2022-09-05T02:43:28.946Z,87.48
2022-09-05T02:45:01.888Z,87.49
2022-09-05T02:45:03.024Z,87.48
2022-09-05T02:45:07.127Z,87.27
2022-09-05T02:45:07.953Z,87.28
2022-09-05T02:45:08.709Z,87.34
2022-09-05T02:45:20.465Z,87.40
2022-09-05T02:45:48.356Z,87.32
2022-09-05T02:46:52.697Z,87.33
2022-09-05T02:47:56.972Z,87.33
2022-09-05T02:49:01.330Z,87.27
2022-09-05T02:55:22.272Z,87.19
2022-09-05T02:57:26.857Z,86.63
2022-09-05T02:57:26.917Z,86.83
2022-09-05T02:57:29.794Z,87.10
2022-09-05T02:57:35.241Z,86.73
2022-09-05T02:57:42.651Z,86.89
2022-09-05T02:58:04.531Z,86.85
2022-09-05T02:58:06.387Z,86.88
2022-09-05T02:59:08.078Z,86.78
2022-09-05T02:59:44.858Z,86.83
2022-09-05T03:00:50.995Z,86.78
2022-09-05T03:01:53.523Z,86.83
2022-09-05T03:02:57.963Z,86.91
2022-09-05T03:04:02.249Z,86.97
2022-09-05T03:05:06.658Z,86.99
2022-09-05T03:06:11.037Z,87.02
2022-09-05T03:07:15.295Z,87.03
2022-09-05T03:08:19.825Z,87.03
2022-09-05T03:09:24.108Z,87.07
2022-09-05T03:10:45.702Z,87.15
2022-09-05T03:11:32.825Z,87.13
2022-09-05T03:12:37.197Z,87.05
2022-09-05T03:13:48.967Z,86.98
2022-09-05T03:14:45.874Z,86.92
2022-09-05T03:15:50.354Z,86.80
2022-09-05T03:16:54.709Z,86.83
2022-09-05T03:18:20.792Z,86.88
2022-09-05T03:19:03.221Z,86.91
2022-09-05T03:20:07.649Z,86.89
2022-09-05T03:21:12.002Z,86.96
2022-09-05T03:22:16.362Z,86.86
2022-09-05T03:23:20.662Z,86.89
2022-09-05T03:24:25.008Z,86.88
2022-09-05T03:25:29.385Z,86.85
2022-09-05T03:26:33.677Z,86.94
2022-09-05T03:27:38.075Z,87.02
2022-09-05T03:28:42.451Z,87.04
2022-09-05T03:29:58.324Z,87.10
2022-09-05T03:30:53.276Z,87.11
2022-09-05T03:31:57.563Z,87.14
2022-09-05T03:33:01.939Z,87.20
2022-09-05T03:34:06.196Z,87.28
2022-09-05T03:35:10.559Z,87.38
2022-09-05T03:36:14.915Z,87.50
2022-09-05T03:37:22.231Z,87.45
2022-09-05T03:38:25.833Z,87.54
2022-09-05T03:39:30.041Z,87.49
2022-09-05T03:40:34.258Z,87.54
2022-09-05T03:41:40.665Z,87.59
2022-09-05T03:42:42.953Z,87.53
2022-09-05T03:43:47.371Z,87.56
2022-09-05T03:44:51.785Z,87.61
2022-09-05T03:45:56.082Z,87.57
2022-09-05T03:47:00.336Z,87.58
2022-09-05T03:48:13.426Z,87.61
2022-09-05T03:50:40.175Z,87.55
2022-09-05T03:56:55.573Z,87.60
2022-09-05T03:57:06.089Z,87.68
2022-09-05T03:57:08.398Z,87.66
2022-09-05T03:57:12.366Z,87.67
2022-09-05T03:57:18.761Z,87.82
2022-09-05T03:57:23.702Z,87.75
2022-09-05T03:57:25.622Z,87.86
2022-09-05T03:57:43.574Z,87.87
2022-09-05T03:58:56.760Z,87.83
2022-09-05T03:59:52.308Z,87.83
2022-09-05T04:01:10.551Z,87.79
2022-09-05T04:02:59.933Z,87.87
2022-09-05T04:07:12.019Z,87.89
2022-09-05T04:08:09.416Z,87.78
2022-09-05T04:08:20.923Z,87.78
2022-09-05T04:08:23.589Z,87.78
2022-09-05T04:08:24.412Z,87.74
2022-09-05T04:08:38.547Z,87.75
2022-09-05T04:09:49.986Z,87.75
2022-09-05T04:10:35.727Z,87.69
2022-09-05T04:11:39.994Z,87.69
2022-09-05T04:12:44.250Z,87.63
2022-09-05T04:13:48.602Z,87.53
2022-09-05T04:14:52.998Z,87.54
2022-09-05T04:15:57.319Z,87.51
2022-09-05T04:17:01.661Z,87.57
2022-09-05T04:18:05.890Z,87.57
2022-09-05T04:19:10.228Z,87.57
2022-09-05T04:20:14.610Z,87.51
2022-09-05T04:21:18.947Z,87.45
2022-09-05T04:22:23.286Z,87.49
2022-09-05T04:23:27.560Z,87.47
2022-09-05T04:24:31.934Z,87.41
2022-09-05T04:25:36.295Z,87.35
2022-09-05T04:26:43.708Z,87.32
2022-09-05T04:27:47.067Z,87.34
2022-09-05T04:28:53.765Z,87.35
2022-09-05T04:29:55.851Z,87.39
2022-09-05T04:31:00.051Z,87.34
2022-09-05T04:32:17.449Z,87.34
2022-09-05T04:33:08.838Z,87.42
2022-09-05T04:34:13.095Z,87.47
2022-09-05T04:35:17.396Z,87.50
2022-09-05T04:36:21.705Z,87.49
2022-09-05T04:37:26.108Z,87.50
2022-09-05T04:38:30.443Z,87.57
2022-09-05T04:39:34.898Z,87.54
2022-09-05T04:40:39.084Z,87.58
2022-09-05T04:41:43.429Z,87.63
2022-09-05T04:42:47.717Z,87.66
2022-09-05T04:43:52.032Z,87.72
2022-09-05T04:44:56.444Z,87.79
2022-09-05T04:46:00.827Z,87.73
2022-09-05T04:47:05.507Z,87.83
2022-09-05T04:48:09.443Z,87.83
2022-09-05T04:49:13.682Z,87.83
2022-09-05T04:50:21.874Z,87.87
2022-09-05T04:51:22.309Z,87.85
2022-09-05T04:52:31.698Z,87.98
2022-09-05T04:53:31.021Z,88.05
2022-09-05T04:54:36.450Z,88.02
2022-09-05T04:55:40.241Z,88.04
2022-09-05T04:56:44.533Z,87.92
2022-09-05T04:57:48.808Z,87.94
2022-09-05T04:59:41.885Z,88.02
2022-09-05T05:04:35.780Z,88.06
2022-09-05T05:06:00.735Z,88.01
2022-09-05T05:06:00.969Z,87.96
2022-09-05T05:06:12.752Z,87.92
2022-09-05T05:06:13.106Z,87.95
2022-09-05T05:06:15.943Z,87.88
2022-09-05T05:06:45.936Z,87.84
2022-09-05T05:07:28.042Z,87.78
2022-09-05T05:08:38.989Z,87.79
2022-09-05T05:09:36.579Z,87.69
2022-09-05T05:14:07.643Z,87.51
2022-09-05T05:17:33.030Z,87.25
2022-09-05T05:17:55.852Z,87.25
2022-09-05T05:17:58.393Z,87.47
2022-09-05T05:18:03.251Z,87.34
2022-09-05T05:18:07.634Z,87.00
2022-09-05T05:18:08.807Z,87.11
2022-09-05T05:18:41.008Z,87.05
2022-09-05T05:19:18.897Z,87.06
2022-09-05T05:20:42.881Z,87.11
2022-09-05T05:21:24.277Z,87.24
2022-09-05T05:22:28.542Z,86.95
2022-09-05T05:23:32.849Z,86.89
2022-09-05T05:24:37.183Z,86.74
2022-09-05T05:25:41.619Z,86.86
2022-09-05T05:26:45.964Z,87.14
2022-09-05T05:27:50.291Z,87.27
2022-09-05T05:28:54.708Z,87.17
2022-09-05T05:29:59.026Z,86.95
2022-09-05T05:31:03.381Z,86.50
2022-09-05T05:32:07.768Z,86.56
2022-09-05T05:33:12.092Z,86.64
2022-09-05T05:34:24.781Z,86.67
2022-09-05T05:35:20.702Z,86.24
2022-09-05T05:36:25.046Z,86.42
2022-09-05T05:37:29.344Z,86.32
2022-09-05T05:38:33.650Z,86.48
2022-09-05T05:39:38.004Z,86.48
2022-09-05T05:40:50.776Z,86.39
2022-09-05T05:41:46.762Z,86.38
2022-09-05T05:42:51.040Z,86.31
2022-09-05T05:43:55.328Z,86.40
2022-09-05T05:44:59.757Z,86.55
2022-09-05T05:46:04.073Z,86.64
2022-09-05T05:47:08.326Z,86.72
2022-09-05T05:48:12.654Z,86.55
2022-09-05T05:49:17.036Z,86.54
2022-09-05T05:50:21.397Z,86.39
2022-09-05T05:51:38.312Z,86.25
2022-09-05T05:52:30.068Z,86.19
2022-09-05T05:53:42.892Z,86.24
2022-09-05T05:54:38.681Z,86.27
2022-09-05T05:55:52.106Z,86.37
2022-09-05T05:56:47.307Z,86.39
2022-09-05T05:57:51.619Z,86.40
2022-09-05T05:58:56.059Z,86.21
2022-09-05T06:00:00.444Z,86.20
2022-09-05T06:01:04.670Z,86.11
2022-09-05T06:02:09.138Z,86.05
2022-09-05T06:03:25.764Z,85.48
2022-09-05T06:04:17.808Z,84.93
2022-09-05T06:05:22.120Z,84.99
2022-09-05T06:06:26.413Z,85.26
2022-09-05T06:07:33.269Z,85.30
2022-09-05T06:10:35.408Z,85.17
2022-09-05T06:14:49.045Z,84.57
2022-09-05T06:14:53.129Z,84.37
2022-09-05T06:15:02.056Z,84.53
2022-09-05T06:15:02.641Z,83.81
2022-09-05T06:15:06.063Z,83.81
2022-09-05T06:15:10.197Z,83.96
2022-09-05T06:16:06.591Z,84.07
2022-09-05T06:17:09.784Z,83.97
2022-09-05T06:18:14.211Z,84.16
2022-09-05T06:19:18.426Z,84.05
2022-09-05T06:22:11.280Z,83.58
2022-09-05T06:22:11.747Z,83.15
2022-09-05T06:22:31.678Z,83.32
2022-09-05T06:23:38.601Z,83.08
2022-09-05T06:24:40.222Z,83.26
2022-09-05T06:25:44.570Z,83.43
2022-09-05T06:26:48.883Z,83.32
2022-09-05T06:28:02.282Z,82.89
2022-09-05T06:28:57.586Z,82.58
2022-09-05T06:30:01.878Z,83.13
2022-09-05T06:31:30.697Z,83.18
2022-09-05T06:32:10.739Z,82.50
2022-09-05T06:33:15.016Z,81.82
2022-09-05T06:34:33.056Z,81.84
2022-09-05T06:35:23.857Z,82.39
2022-09-05T06:36:28.213Z,82.61
2022-09-05T06:37:32.527Z,82.11
2022-09-05T06:38:36.965Z,81.27
2022-09-05T06:39:46.549Z,80.72
2022-09-05T06:40:45.759Z,80.68
2022-09-05T06:41:50.137Z,81.27
2022-09-05T06:42:54.532Z,81.08
2022-09-05T06:43:58.842Z,81.00
2022-09-05T06:45:12.772Z,80.16
2022-09-05T06:46:08.353Z,78.33
2022-09-05T06:47:23.207Z,78.70
2022-09-05T06:48:23.895Z,79.02
2022-09-05T06:49:31.047Z,79.08
2022-09-05T06:50:27.883Z,78.87
2022-09-05T06:51:29.488Z,79.37
2022-09-05T06:52:33.829Z,79.68
2022-09-05T06:53:38.214Z,78.62
2022-09-05T06:54:49.830Z,78.07
2022-09-05T06:55:46.941Z,76.35
2022-09-05T06:56:51.307Z,76.44
2022-09-05T06:57:55.779Z,76.87
2022-09-05T06:59:00.094Z,75.47
2022-09-05T07:00:04.493Z,76.13
2022-09-05T07:01:09.083Z,76.98
2022-09-05T07:02:13.290Z,77.13
2022-09-05T07:03:17.792Z,75.45
2022-09-05T07:04:34.558Z,74.47
2022-09-05T07:05:44.948Z,74.48
2022-09-05T07:07:01.097Z,75.50
2022-09-05T07:07:48.052Z,75.67
2022-09-05T07:08:52.770Z,75.46
2022-09-05T07:09:56.760Z,76.01
2022-09-05T07:11:02.901Z,76.78
2022-09-05T07:12:05.466Z,76.54
2022-09-05T07:13:09.925Z,76.91
2022-09-05T07:14:14.333Z,76.43
2022-09-05T07:15:18.797Z,76.67
2022-09-05T07:16:26.684Z,77.43
2022-09-05T07:17:27.580Z,78.05
2022-09-05T07:18:31.932Z,77.62
2022-09-05T07:19:36.338Z,77.78
2022-09-05T07:21:17.738Z,77.67
2022-09-05T07:21:44.938Z,77.71
2022-09-05T07:22:49.510Z,78.29
2022-09-05T07:24:08.667Z,77.29
2022-09-05T07:24:58.174Z,76.71
2022-09-05T07:26:02.582Z,77.49
2022-09-05T07:27:08.964Z,78.00
2022-09-05T07:28:27.149Z,77.82
2022-09-05T07:29:15.558Z,77.25
2022-09-05T07:30:19.992Z,77.09
2022-09-05T07:31:27.545Z,76.67
2022-09-05T07:32:28.626Z,75.90
2022-09-05T07:33:33.067Z,76.27
2022-09-05T07:34:37.368Z,77.12
2022-09-05T07:35:42.830Z,76.52
2022-09-05T07:36:46.645Z,76.88
2022-09-05T07:37:51.028Z,76.03
2022-09-05T07:39:12.214Z,76.08
2022-09-05T07:40:06.694Z,75.86
2022-09-05T07:41:04.080Z,75.52
2022-09-05T07:42:08.408Z,75.34
2022-09-05T07:43:15.959Z,75.49
2022-09-05T07:44:17.105Z,75.84
2022-09-05T07:45:21.691Z,76.22
2022-09-05T07:46:25.819Z,76.87
2022-09-05T07:47:30.131Z,76.43
2022-09-05T07:48:35.667Z,76.39
2022-09-05T07:49:45.585Z,76.96
2022-09-05T07:55:57.495Z,75.92
2022-09-05T07:56:53.219Z,75.67
2022-09-05T07:56:55.764Z,74.88
2022-09-05T07:56:59.244Z,75.92
2022-09-05T07:57:04.916Z,75.44
2022-09-05T07:57:08.506Z,74.90
2022-09-05T07:58:14.047Z,75.28
2022-09-05T07:59:18.394Z,75.95
2022-09-05T08:00:25.706Z,75.34
2022-09-05T08:01:27.162Z,75.47
2022-09-05T08:02:31.408Z,75.84
2022-09-05T08:03:35.902Z,76.32
2022-09-05T08:04:40.217Z,76.33
2022-09-05T08:05:44.530Z,76.08
2022-09-05T08:07:46.058Z,76.25
2022-09-05T08:07:53.360Z,76.24
2022-09-05T08:09:20.427Z,75.62
2022-09-05T08:10:06.192Z,75.09
2022-09-05T08:11:23.587Z,75.53
2022-09-05T08:12:10.836Z,76.24
2022-09-05T08:13:24.218Z,75.75
2022-09-05T08:14:44.033Z,75.31
2022-09-05T08:15:24.076Z,74.92
2022-09-05T08:16:28.446Z,74.42
2022-09-05T08:17:32.841Z,74.82
2022-09-05T08:18:37.163Z,75.03
2022-09-05T08:19:41.561Z,75.16
2022-09-05T08:20:45.833Z,74.79
2022-09-05T08:21:50.272Z,75.16
2022-09-05T08:22:54.609Z,75.78
2022-09-05T08:23:59.049Z,76.36
2022-09-05T08:25:03.388Z,76.79
2022-09-05T08:26:07.776Z,76.14
2022-09-05T08:27:16.718Z,75.52
2022-09-05T08:28:16.513Z,75.28
2022-09-05T08:29:20.987Z,75.07
2022-09-05T08:30:27.922Z,74.71
2022-09-05T08:31:29.802Z,75.23
2022-09-05T08:32:35.462Z,74.87
2022-09-05T08:33:38.634Z,75.10
2022-09-05T08:34:44.996Z,75.56
2022-09-05T08:35:47.280Z,75.67
2022-09-05T08:36:51.696Z,74.66
2022-09-05T08:37:55.996Z,74.12
2022-09-05T08:39:00.453Z,74.41
2022-09-05T08:40:11.498Z,74.67
2022-09-05T08:41:09.190Z,75.37
2022-09-05T08:42:13.560Z,74.57
2022-09-05T08:44:37.518Z,74.00
2022-09-05T08:46:37.791Z,74.41
2022-09-05T08:46:42.972Z,74.14
2022-09-05T08:46:43.695Z,74.95
2022-09-05T08:47:45.719Z,74.34
2022-09-05T08:48:39.888Z,74.66
2022-09-05T08:49:46.166Z,74.09
2022-09-05T08:50:49.493Z,74.34
2022-09-05T08:51:55.263Z,73.63
2022-09-05T08:52:57.958Z,74.31
2022-09-05T08:54:02.323Z,75.32
2022-09-05T08:55:07.659Z,74.91
2022-09-05T08:56:11.020Z,74.55
2022-09-05T08:57:15.341Z,73.42
2022-09-05T08:58:19.717Z,73.95
2022-09-05T08:59:27.573Z,73.61
2022-09-05T09:00:31.515Z,73.49
2022-09-05T09:01:38.145Z,72.97
2022-09-05T09:02:47.515Z,73.45
2022-09-05T09:03:41.745Z,74.55
2022-09-05T09:05:00.945Z,73.78
2022-09-05T09:06:14.550Z,73.21
2022-09-05T09:07:09.488Z,73.04
2022-09-05T09:07:59.219Z,73.65
2022-09-05T09:09:05.755Z,73.19
2022-09-05T09:10:07.991Z,73.06
2022-09-05T09:11:12.398Z,73.82
2022-09-05T09:12:16.833Z,73.56
2022-09-05T09:13:21.290Z,73.08
2022-09-05T09:14:30.185Z,72.44
2022-09-05T09:15:30.126Z,72.39
2022-09-05T09:16:34.667Z,71.91
2022-09-05T09:17:38.996Z,72.59
2022-09-05T09:18:43.449Z,71.97
2022-09-05T09:19:47.837Z,71.95
2022-09-05T09:20:52.159Z,71.93
2022-09-05T09:21:56.682Z,72.74
2022-09-05T09:23:00.989Z,73.38
2022-09-05T09:24:05.500Z,72.75
2022-09-05T09:25:14.942Z,72.98
2022-09-05T09:26:14.357Z,73.64
2022-09-05T09:27:19.154Z,72.74
2022-09-05T09:28:49.986Z,70.99
2022-09-05T09:29:27.578Z,70.71
2022-09-05T09:30:35.011Z,70.06
2022-09-05T09:31:38.695Z,70.73
2022-09-05T09:32:42.983Z,70.55
2022-09-05T09:33:47.406Z,71.19
2022-09-05T09:34:51.785Z,71.84
2022-09-05T09:35:56.217Z,71.77
2022-09-05T09:37:00.655Z,72.58
2022-09-05T09:38:05.083Z,72.49
2022-09-05T09:39:37.281Z,72.39
2022-09-05T09:40:14.054Z,72.68
2022-09-05T09:41:18.351Z,72.50
2022-09-05T09:42:33.230Z,72.58
2022-09-05T09:43:27.084Z,73.32
2022-09-05T09:44:31.607Z,71.37
2022-09-05T09:45:36.063Z,70.70
2022-09-05T09:46:40.521Z,70.07
2022-09-05T09:47:44.978Z,69.27
2022-09-05T09:48:51.516Z,69.43
2022-09-05T09:49:53.833Z,68.65
2022-09-05T09:51:00.198Z,68.69
2022-09-05T09:52:02.675Z,68.26
2022-09-05T09:53:07.099Z,68.36
2022-09-05T09:54:11.538Z,69.74
2022-09-05T09:55:21.260Z,68.53
2022-09-05T09:56:20.455Z,68.80
2022-09-05T09:57:24.900Z,68.45
2022-09-05T09:58:29.645Z,68.75
2022-09-05T09:59:33.753Z,68.53
2022-09-05T10:00:38.211Z,68.45
2022-09-05T10:01:42.698Z,68.80
2022-09-05T10:04:12.525Z,68.75
2022-09-05T10:10:33.590Z,69.58
2022-09-05T10:10:43.935Z,69.13
2022-09-05T10:10:46.658Z,69.33
2022-09-05T10:10:46.919Z,68.67
2022-09-05T10:10:48.841Z,69.94
2022-09-05T10:10:56.270Z,70.00
2022-09-05T10:11:07.993Z,70.00
2022-09-05T10:13:31.369Z,68.16
2022-09-05T10:14:48.986Z,68.08
2022-09-05T10:15:40.345Z,68.94
2022-09-05T10:16:44.702Z,68.65
2022-09-05T10:17:49.132Z,68.00
2022-09-05T10:18:53.581Z,68.00
2022-09-05T10:20:13.480Z,68.29
2022-09-05T10:21:16.764Z,68.75
2022-09-05T10:22:37.654Z,67.36
2022-09-05T10:23:11.501Z,66.94
2022-09-05T10:24:15.915Z,67.55
2022-09-05T10:25:20.358Z,67.19
2022-09-05T10:26:24.800Z,66.98
2022-09-05T10:27:29.244Z,67.52
2022-09-05T10:28:33.730Z,67.46
2022-09-05T10:29:38.808Z,67.60
2022-09-05T10:32:13.564Z,68.19
2022-09-05T10:34:39.485Z,68.44
2022-09-05T10:35:07.572Z,68.09
2022-09-05T10:35:13.965Z,67.59
2022-09-05T10:35:14.386Z,67.49
2022-09-05T10:36:05.259Z,67.71
2022-09-05T10:37:09.628Z,68.17
2022-09-05T10:38:14.024Z,68.65
2022-09-05T10:39:18.558Z,67.60
2022-09-05T10:40:23.031Z,67.03
2022-09-05T10:41:27.447Z,66.39
2022-09-05T10:42:31.915Z,66.66
2022-09-05T10:43:36.436Z,67.39
2022-09-05T10:44:40.878Z,67.40
2022-09-05T10:45:45.321Z,67.22
2022-09-05T10:46:51.593Z,66.90
2022-09-05T10:47:54.159Z,66.47
2022-09-05T10:48:58.588Z,67.39
2022-09-05T10:50:03.047Z,67.47
2022-09-05T10:51:07.477Z,67.46
2022-09-05T10:52:18.831Z,67.18
2022-09-05T10:53:16.383Z,66.92
2022-09-05T10:54:20.766Z,67.17
2022-09-05T10:55:25.177Z,66.67
2022-09-05T10:56:29.811Z,65.76
2022-09-05T10:57:34.075Z,65.87
2022-09-05T10:59:54.085Z,66.17
2022-09-05T11:02:21.417Z,66.75
2022-09-05T11:02:21.799Z,67.37
2022-09-05T11:02:22.751Z,66.79
2022-09-05T11:02:57.590Z,66.99
2022-09-05T11:04:00.776Z,67.16
2022-09-05T11:05:05.126Z,67.05
2022-09-05T11:06:09.720Z,66.64
2022-09-05T11:07:14.021Z,66.06
2022-09-05T11:08:18.486Z,66.73
2022-09-05T11:09:22.915Z,66.51
2022-09-05T11:10:27.359Z,66.51
2022-09-05T11:11:34.564Z,65.86
2022-09-05T11:12:36.235Z,66.32
2022-09-05T11:13:40.640Z,66.53
2022-09-05T11:14:45.119Z,66.28
2022-09-05T11:15:52.865Z,65.89
2022-09-05T11:16:54.056Z,66.61
2022-09-05T11:17:58.452Z,67.33
2022-09-05T11:19:02.899Z,66.91
2022-09-05T11:20:07.491Z,66.03
2022-09-05T11:21:11.802Z,66.24
2022-09-05T11:22:23.691Z,66.24
2022-09-05T11:23:20.820Z,66.64
2022-09-05T11:24:27.394Z,65.66
2022-09-05T11:25:40.686Z,65.99
2022-09-05T11:26:34.016Z,65.97
2022-09-05T11:27:38.476Z,66.58
2022-09-05T11:28:57.554Z,66.57
2022-09-05T11:29:47.331Z,67.16
2022-09-05T11:30:51.873Z,66.22
2022-09-05T11:34:04.140Z,66.30
2022-09-05T11:39:17.199Z,66.80
2022-09-05T11:39:54.023Z,65.67
2022-09-05T11:39:57.628Z,65.03
2022-09-05T11:39:59.595Z,65.94
2022-09-05T11:40:03.786Z,65.42
2022-09-05T11:40:03.883Z,65.68
2022-09-05T11:40:10.271Z,65.69
2022-09-05T11:40:51.109Z,65.57
2022-09-05T11:41:36.167Z,65.77
2022-09-05T11:42:40.558Z,65.61
2022-09-05T11:43:45.012Z,65.58
2022-09-05T11:44:49.399Z,64.92
2022-09-05T11:45:53.840Z,65.65
2022-09-05T11:47:14.325Z,66.16
2022-09-05T11:48:02.671Z,66.13
2022-09-05T11:49:07.140Z,66.84
2022-09-05T11:50:11.587Z,66.23
2022-09-05T11:51:16.048Z,65.63
2022-09-05T11:52:20.468Z,65.31
2022-09-05T11:53:24.895Z,64.91
2022-09-05T11:54:29.362Z,64.78
2022-09-05T11:55:33.780Z,65.01
2022-09-05T11:56:41.926Z,65.91
2022-09-05T11:57:48.672Z,65.76
2022-09-05T11:58:51.814Z,64.70
2022-09-05T12:00:08.159Z,64.65
2022-09-05T12:01:41.383Z,63.89
2022-09-05T12:02:11.074Z,61.75
2022-09-05T12:03:09.464Z,61.07
2022-09-05T12:04:14.006Z,61.41
2022-09-05T12:05:48.336Z,61.45
2022-09-05T12:06:22.843Z,61.54
2022-09-05T12:07:31.653Z,61.75
2022-09-05T12:08:31.625Z,61.93
2022-09-05T12:09:36.041Z,62.41
2022-09-05T12:10:47.941Z,62.45
2022-09-05T12:11:44.843Z,62.29
2022-09-05T12:12:49.264Z,62.88
2022-09-05T12:13:53.787Z,62.73
2022-09-05T12:14:58.182Z,62.58
2022-09-05T12:16:08.109Z,61.39
2022-09-05T12:17:10.135Z,60.06
2022-09-05T12:18:19.442Z,60.21
2022-09-05T12:19:19.002Z,60.28
2022-09-05T12:20:22.066Z,60.59
2022-09-05T12:21:24.884Z,60.07
2022-09-05T12:22:29.357Z,60.30
2022-09-05T12:24:13.150Z,60.07
2022-09-05T12:25:16.060Z,60.27
2022-09-05T12:27:39.634Z,60.42
2022-09-05T12:27:42.469Z,59.91
2022-09-05T12:27:58.578Z,59.81
2022-09-05T12:30:01.131Z,59.61
2022-09-05T12:32:00.257Z,59.95
2022-09-05T12:33:40.762Z,59.91
2022-09-05T12:36:01.425Z,60.36
2022-09-05T12:36:06.883Z,60.58
2022-09-05T12:36:12.597Z,60.81
2022-09-05T12:40:53.899Z,59.97
2022-09-05T12:40:57.583Z,59.78
2022-09-05T12:40:58.023Z,60.25
2022-09-05T12:41:41.811Z,59.62
2022-09-05T12:41:45.234Z,59.10
2022-09-05T12:42:10.154Z,59.60
2022-09-05T12:42:14.907Z,59.25
2022-09-05T12:44:26.987Z,59.39
2022-09-05T12:44:42.386Z,58.89
2022-09-05T12:45:15.899Z,58.82
2022-09-05T12:46:23.726Z,58.66
2022-09-05T12:47:24.557Z,58.23
2022-09-05T12:48:39.313Z,58.99
2022-09-05T12:49:36.372Z,59.47
2022-09-05T12:50:37.902Z,59.03
2022-09-05T12:51:45.785Z,58.33
2022-09-05T12:52:46.998Z,58.53
2022-09-05T12:53:51.274Z,58.22
2022-09-05T12:54:57.056Z,58.68
2022-09-05T12:56:38.724Z,58.58
2022-09-05T13:02:58.702Z,58.29
2022-09-05T13:02:59.295Z,58.48
2022-09-05T13:03:05.819Z,57.61
2022-09-05T13:03:06.075Z,57.93
2022-09-05T13:03:07.998Z,58.13
2022-09-05T13:03:11.103Z,57.63
2022-09-05T13:03:32.494Z,57.80
2022-09-05T13:04:36.508Z,57.82
2022-09-05T13:05:40.424Z,57.68
2022-09-05T13:06:44.894Z,57.69
2022-09-05T13:07:49.206Z,57.91
2022-09-05T13:08:59.939Z,56.83
2022-09-05T13:12:06.038Z,57.24
2022-09-05T13:14:38.434Z,57.49
2022-09-05T13:14:53.190Z,56.77
2022-09-05T13:14:53.868Z,56.73
2022-09-05T13:14:56.315Z,56.52
2022-09-05T13:15:23.685Z,57.21
2022-09-05T13:16:24.983Z,57.29
2022-09-05T13:17:29.401Z,57.60
2022-09-05T13:18:33.815Z,57.72
2022-09-05T13:19:38.337Z,57.77
2022-09-05T13:20:42.772Z,57.37
2022-09-05T13:21:47.240Z,56.74
2022-09-05T13:22:51.700Z,56.66
2022-09-05T13:23:56.156Z,56.75
2022-09-05T13:25:00.575Z,56.62
2022-09-05T13:26:05.043Z,56.83
2022-09-05T13:27:09.520Z,57.23
2022-09-05T13:28:13.963Z,56.90
2022-09-05T13:29:18.415Z,57.33
2022-09-05T13:32:18.307Z,57.57
2022-09-05T13:37:01.384Z,57.83
2022-09-05T13:37:59.035Z,56.98
2022-09-05T13:38:15.895Z,57.94
2022-09-05T13:38:20.331Z,57.13
2022-09-05T13:38:29.073Z,57.49
2022-09-05T13:38:29.125Z,57.16
2022-09-05T13:38:30.571Z,57.65
2022-09-05T13:38:58.994Z,57.54
2022-09-05T13:40:03.029Z,57.60
2022-09-05T13:41:07.337Z,57.47
2022-09-05T13:42:11.812Z,57.68
2022-09-05T13:43:16.296Z,58.08
2022-09-05T13:44:25.129Z,58.00
2022-09-05T13:45:25.170Z,57.80
2022-09-05T13:46:29.718Z,58.19
2022-09-05T13:47:34.071Z,58.00
2022-09-05T13:49:42.982Z,58.31
2022-09-05T13:50:47.443Z,59.19
2022-09-05T13:51:51.902Z,59.59
2022-09-05T13:52:56.362Z,60.51
2022-09-05T13:54:00.821Z,60.76